Time;durP1;ratioP1;P1;durP2;ratioP2;P2;SDS_P1;SDS_P2;PMS_P1;PMS_P2;Temp;Humidity;BMP_temperature;BMP_pressure;BME280_temperature;BME280_humidity;BME280_pressure;Samples;Min_cycle;Max_cycle;Signal;HPM_P1;HPM_P2
2021/03/12 04:28:50;;;;;;;7.63;5.25;;;153.80;1766.40;;;;;;6062935;22;928081;-67
2021/03/12 04:31:17;;;;;;;8.07;5.85;;;153.70;1792.00;;;;;;6278794;22;20018;-70
2021/03/12 04:33:43;;;;;;;9.50;6.30;;;128.90;1792.00;;;;;;6278998;22;20386;-70
2021/03/12 04:36:10;;;;;;;11.27;5.72;;;128.90;1792.00;;;;;;6278094;22;20318;-69
2021/03/12 04:38:36;;;;;;;8.82;5.22;;;153.60;1766.40;;;;;;6277993;22;20436;-71
2021/03/12 04:41:03;;;;;;;8.85;5.45;;;153.60;1766.40;;;;;;6278518;22;20019;-70
2021/03/12 04:43:29;;;;;;;7.53;4.45;;;153.60;1740.80;;;;;;6278679;22;20003;-70
2021/03/12 04:45:58;;;;;;;8.63;5.35;;;128.90;1766.40;;;;;;6278985;22;19988;-70
2021/03/12 04:48:24;;;;;;;9.18;5.03;;;153.60;1740.80;;;;;;6278249;22;20000;-70
2021/03/12 04:50:50;;;;;;;7.68;5.03;;;153.60;1766.40;;;;;;6276621;22;19992;-69
2021/03/12 04:53:16;;;;;;;11.90;6.53;;;128.80;1766.40;;;;;;6278405;22;20006;-70
2021/03/12 04:55:43;;;;;;;13.48;6.18;;;128.60;1792.00;;;;;;6279268;22;19988;-69
2021/03/12 04:58:10;;;;;;;9.82;6.30;;;128.50;1817.60;;;;;;6277855;22;20283;-69
2021/03/12 05:00:36;;;;;;;11.85;6.88;;;128.40;1817.60;;;;;;6277984;22;19991;-69
2021/03/12 05:03:01;;;;;;;10.45;6.25;;;128.60;1817.60;;;;;;6279546;22;20345;-69
2021/03/12 05:05:28;;;;;;;13.52;6.45;;;128.40;1817.60;;;;;;6278231;22;20014;-69
2021/03/12 05:07:55;;;;;;;9.20;6.15;;;128.20;1843.20;;;;;;6278449;22;19992;-70
2021/03/12 05:10:21;;;;;;;10.45;6.20;;;128.40;1843.20;;;;;;6278066;22;19998;-69
2021/03/12 05:12:47;;;;;;;10.25;6.07;;;128.20;1843.20;;;;;;6278746;22;19995;-69
2021/03/12 05:15:13;;;;;;;10.98;6.82;;;128.10;1843.20;;;;;;6280153;22;19998;-70
2021/03/12 05:17:39;;;;;;;22.38;9.95;;;128.20;1843.20;;;;;;6279599;22;20031;-69
2021/03/12 05:20:05;;;;;;;24.85;12.95;;;128.20;1843.20;;;;;;6279537;22;19999;-69
2021/03/12 05:22:31;;;;;;;52.85;22.35;;;128.30;1868.80;;;;;;6280086;22;20430;-69
2021/03/12 05:24:57;;;;;;;50.95;21.55;;;128.40;1868.80;;;;;;6279572;22;20042;-69
2021/03/12 05:27:23;;;;;;;492.17;203.48;;;128.40;1894.40;;;;;;6279344;22;20003;-69
2021/03/12 05:29:49;;;;;;;192.52;72.50;;;128.50;1894.40;;;;;;6279879;22;20034;-69
2021/03/12 05:32:15;;;;;;;296.70;110.28;;;128.60;1920.00;;;;;;6279431;22;20342;-69
2021/03/12 05:34:40;;;;;;;383.00;142.95;;;128.50;1894.40;;;;;;6280152;22;19992;-70
2021/03/12 05:37:06;;;;;;;331.02;123.85;;;128.60;1894.40;;;;;;6280201;22;19994;-69
2021/03/12 05:39:32;;;;;;;129.07;49.15;;;128.60;1920.00;;;;;;6278677;22;19992;-69
2021/03/12 05:41:59;;;;;;;15.40;10.23;;;128.60;1894.40;;;;;;6279693;22;20407;-69
2021/03/12 05:44:25;;;;;;;14.43;9.25;;;128.70;1920.00;;;;;;6279417;22;19991;-68
2021/03/12 05:46:51;;;;;;;18.23;10.18;;;128.60;1945.60;;;;;;6279410;22;20015;-69
2021/03/12 05:49:18;;;;;;;16.35;8.80;;;128.60;1945.60;;;;;;6279259;22;20387;-70
2021/03/12 05:51:43;;;;;;;15.98;9.80;;;128.50;1971.20;;;;;;6279771;22;19996;-69
2021/03/12 05:54:10;;;;;;;75.70;32.70;;;128.50;1971.20;;;;;;6277609;22;19998;-69
2021/03/12 05:56:36;;;;;;;52.17;23.55;;;128.60;1971.20;;;;;;6278719;22;19995;-69
2021/03/12 05:59:05;;;;;;;45.75;22.80;;;128.50;1971.20;;;;;;6278020;22;19996;-69
2021/03/12 06:01:31;;;;;;;52.97;20.92;;;128.10;2022.40;;;;;;6279066;22;20294;-69
2021/03/12 06:03:57;;;;;;;32.58;17.20;;;128.00;2048.00;;;;;;6278972;22;20003;-70
2021/03/12 06:06:24;;;;;;;39.22;17.25;;;128.20;2022.40;;;;;;6278100;22;20383;-68
2021/03/12 06:08:49;;;;;;;49.42;24.23;;;128.00;2048.00;;;;;;6277203;22;20006;-70
2021/03/12 06:11:15;;;;;;;26.92;16.40;;;128.30;2022.40;;;;;;6278003;22;20082;-69
2021/03/12 06:13:55;;;;;;;97.75;50.10;;;128.50;2022.40;;;;;;6278055;22;19992;-68
2021/03/12 06:16:29;;;;;;;39.25;25.52;;;128.90;1996.80;;;;;;6279398;22;19992;-69
2021/03/12 06:19:18;;;;;;;33.72;23.38;;;153.60;1996.80;;;;;;6278388;22;20075;-69
2021/03/12 06:21:48;;;;;;;20.95;12.77;;;153.80;1971.20;;;;;;6279019;22;19992;-70
2021/03/12 06:24:36;;;;;;;23.95;14.93;;;154.00;1945.60;;;;;;6279644;22;19991;-69
2021/03/12 06:27:02;;;;;;;22.58;13.02;;;154.30;1920.00;;;;;;6277184;22;19996;-69
2021/03/12 06:29:36;;;;;;;23.88;14.10;;;154.40;1920.00;;;;;;6278755;22;19996;-69
2021/03/12 06:32:06;;;;;;;26.17;16.08;;;154.50;1920.00;;;;;;6278901;22;20390;-69
2021/03/12 06:34:33;;;;;;;19.35;12.60;;;179.20;1894.40;;;;;;6278340;22;20066;-69
2021/03/12 06:37:00;;;;;;;41.33;25.65;;;179.50;1868.80;;;;;;6279214;22;19995;-69
2021/03/12 06:39:34;;;;;;;21.35;12.73;;;179.60;1868.80;;;;;;6279196;22;19991;-69
2021/03/12 06:42:07;;;;;;;18.63;12.63;;;179.60;1868.80;;;;;;6279125;22;20011;-70
2021/03/12 06:44:35;;;;;;;15.48;9.05;;;179.30;1843.20;;;;;;6278897;22;20026;-70
2021/03/12 06:47:02;;;;;;;16.50;8.93;;;179.20;1817.60;;;;;;6279402;22;20046;-69
2021/03/12 06:49:28;;;;;;;20.48;10.60;;;154.50;1817.60;;;;;;6278778;22;19992;-68
2021/03/12 06:51:57;;;;;;;25.75;13.07;;;179.20;1817.60;;;;;;6279175;22;20037;-69
2021/03/12 06:54:25;;;;;;;26.15;15.13;;;179.20;1843.20;;;;;;6278747;22;19998;-69
2021/03/12 06:56:51;;;;;;;18.95;12.43;;;154.50;1868.80;;;;;;6277986;22;20302;-70
2021/03/12 06:59:31;;;;;;;24.55;14.70;;;154.40;1868.80;;;;;;6279378;22;20042;-70
2021/03/12 07:01:58;;;;;;;21.63;10.93;;;154.50;1894.40;;;;;;6278573;22;19999;-70
2021/03/12 07:04:27;;;;;;;18.35;11.68;;;154.30;1894.40;;;;;;6279234;22;19992;-69
2021/03/12 07:06:53;;;;;;;19.73;10.98;;;154.30;1920.00;;;;;;6277620;22;20070;-70
2021/03/12 07:09:20;;;;;;;20.00;10.90;;;154.00;1920.00;;;;;;6278519;22;20003;-70
2021/03/12 07:11:53;;;;;;;16.33;10.90;;;154.00;1945.60;;;;;;6279037;22;19988;-69
2021/03/12 07:14:20;;;;;;;21.88;11.25;;;154.10;1945.60;;;;;;6278460;22;20412;-70
2021/03/12 07:16:46;;;;;;;16.85;9.73;;;154.40;1920.00;;;;;;6278047;22;19991;-70
2021/03/12 07:19:12;;;;;;;14.65;9.45;;;154.30;1920.00;;;;;;6277765;22;20052;-69
2021/03/12 07:21:41;;;;;;;19.00;10.48;;;179.20;1894.40;;;;;;6278718;22;20011;-69
2021/03/12 07:24:07;;;;;;;;;;;179.50;1894.40;;;;;;6279178;22;20387;-70
2021/03/12 07:26:45;;;;;;;42.05;10.88;;;179.20;1868.80;;;;;;6278277;22;19900;-69
2021/03/12 07:29:12;;;;;;;24.58;8.95;;;179.20;1894.40;;;;;;6279038;22;20011;-69
2021/03/12 07:31:41;;;;;;;17.77;8.38;;;179.40;1868.80;;;;;;6278699;22;20106;-71
2021/03/12 07:34:13;;;;;;;17.80;9.23;;;179.60;1868.80;;;;;;6278600;22;19996;-70
2021/03/12 07:36:46;;;;;;;17.58;9.75;;;179.50;1894.40;;;;;;6278321;22;20125;-70
2021/03/12 07:39:21;;;;;;;16.15;8.02;;;179.90;1843.20;;;;;;6278579;22;20294;-69
2021/03/12 07:41:48;;;;;;;19.95;9.00;;;180.00;1817.60;;;;;;6276635;22;20074;-70
2021/03/12 07:44:15;;;;;;;26.17;13.48;;;204.90;1843.20;;;;;;6277886;22;20390;-70
2021/03/12 07:46:44;;;;;;;18.20;12.77;;;180.10;1817.60;;;;;;6278246;22;20067;-70
2021/03/12 07:49:32;;;;;;;17.90;12.25;;;204.80;1792.00;;;;;;6278120;22;20037;-69
2021/03/12 07:52:00;;;;;;;22.85;13.63;;;205.00;1766.40;;;;;;6277975;22;20138;-69
2021/03/12 07:54:35;;;;;;;22.95;12.98;;;205.00;1740.80;;;;;;6278487;22;20050;-69
2021/03/12 07:57:01;;;;;;;21.70;12.82;;;205.30;1740.80;;;;;;6278481;22;19992;-69
2021/03/12 07:59:48;;;;;;;18.65;11.80;;;205.30;1766.40;;;;;;6278181;22;19991;-70
2021/03/12 08:02:15;;;;;;;20.92;13.82;;;205.40;1740.80;;;;;;6278418;22;20006;-70
2021/03/12 08:04:42;;;;;;;34.00;17.08;;;205.00;1792.00;;;;;;6279987;22;20050;-69
2021/03/12 08:07:20;;;;;;;16.58;8.55;;;205.30;1792.00;;;;;;6280172;22;19992;-69
2021/03/12 08:10:16;;;;;;;17.65;8.90;;;205.20;1817.60;;;;;;6279808;22;20311;-69
2021/03/12 08:12:42;;;;;;;44.75;32.25;;;205.70;1792.00;;;;;;6270597;22;20000;-69
2021/03/12 08:15:30;;;;;;;24.05;12.70;;;230.50;1766.40;;;;;;6280782;22;20002;-70
2021/03/12 08:17:58;;;;;;;18.73;8.45;;;230.80;1715.20;;;;;;6280628;22;20030;-70
2021/03/12 08:20:29;;;;;;;16.15;6.35;;;230.70;1689.60;;;;;;6280532;22;19992;-69
2021/03/12 08:22:59;;;;;;;12.82;7.05;;;230.60;1664.00;;;;;;6280030;22;19999;-69
2021/03/12 08:25:47;;;;;;;14.82;9.05;;;205.60;1664.00;;;;;;6279164;22;20073;-70
2021/03/12 08:28:13;;;;;;;14.75;7.35;;;230.60;1664.00;;;;;;6278367;22;20008;-69
2021/03/12 08:43:49;;;;;;;15.00;9.07;;;230.80;1638.40;;;;;;5146267;27;20111;-69
2021/03/12 08:46:20;;;;;;;;;;;230.80;1561.60;;;;;;5141335;27;20027;-68
2021/03/12 08:48:48;;;;;;;10.02;6.30;;;230.40;1587.20;;;;;;5143375;27;19942;-70
2021/03/12 08:51:24;;;;;;;13.00;6.82;;;205.60;1587.20;;;;;;5140226;27;20015;-69
2021/03/12 08:53:53;;;;;;;8.07;5.93;;;205.70;1612.80;;;;;;5140735;27;20031;-70
2021/03/12 08:56:22;;;;;;;7.88;5.13;;;205.50;1587.20;;;;;;5144310;27;20016;-70
2021/03/12 08:58:48;;;;;;;9.63;6.25;;;205.40;1587.20;;;;;;5143025;27;20015;-70
2021/03/12 09:02:11;;;;;;;10.77;6.38;;;205.40;1612.80;;;;;;5149787;27;20041;-69
2021/03/12 09:04:56;;;;;;;13.27;7.28;;;205.40;1612.80;;;;;;5149557;27;20016;-68
2021/03/12 09:07:59;;;;;;;11.38;7.45;;;205.30;1612.80;;;;;;5133857;28;20433;-69
2021/03/12 09:10:29;;;;;;;13.32;7.20;;;205.20;1638.40;;;;;;5142025;27;20180;-69
2021/03/12 09:12:54;;;;;;;22.95;6.55;;;205.40;1638.40;;;;;;5140061;27;20110;-69
2021/03/12 09:15:25;;;;;;;11.18;6.90;;;205.70;1638.40;;;;;;5144209;27;20485;-70
2021/03/12 09:18:01;;;;;;;8.95;5.78;;;230.50;1612.80;;;;;;5141997;27;20023;-69
2021/03/12 09:20:27;;;;;;;10.38;5.25;;;230.80;1587.20;;;;;;5141089;27;20359;-68
2021/03/12 09:23:11;;;;;;;10.43;5.80;;;230.50;1612.80;;;;;;5140648;27;20048;-70
2021/03/12 09:25:42;;;;;;;10.95;6.18;;;230.50;1612.80;;;;;;5137384;27;20016;-69
2021/03/12 09:28:15;;;;;;;13.27;7.30;;;230.70;1612.80;;;;;;5140647;27;20084;-68
2021/03/12 09:30:48;;;;;;;16.75;7.82;;;230.80;1612.80;;;;;;5140888;27;20426;-68
2021/03/12 09:33:44;;;;;;;13.00;5.30;;;230.80;1587.20;;;;;;5138267;27;20434;-69
2021/03/12 09:36:37;;;;;;;10.65;6.47;;;230.80;1612.80;;;;;;5134181;27;20019;-69
2021/03/12 09:39:24;;;;;;;12.10;7.63;;;230.90;1587.20;;;;;;5130075;27;20081;-71
2021/03/12 09:42:33;;;;;;;11.18;6.20;;;230.60;1612.80;;;;;;5130432;28;20047;-67
2021/03/12 09:45:01;;;;;;;12.30;6.95;;;230.60;1612.80;;;;;;5119867;28;20035;-69
2021/03/12 09:47:35;;;;;;;12.10;7.10;;;205.60;1612.80;;;;;;5119942;28;20474;-68
2021/03/12 09:50:01;;;;;;;11.60;6.53;;;205.60;1612.80;;;;;;5120549;28;20080;-70
2021/03/12 09:52:26;;;;;;;7.03;5.00;;;205.70;1612.80;;;;;;5119972;28;20438;-68
2021/03/12 09:54:52;;;;;;;12.70;7.90;;;205.70;1587.20;;;;;;5120021;28;20312;-68
2021/03/12 09:57:21;;;;;;;7.72;5.40;;;205.40;1638.40;;;;;;5120316;28;20334;-69
2021/03/12 09:59:51;;;;;;;14.70;7.70;;;205.30;1638.40;;;;;;5120144;28;20106;-68
2021/03/12 10:02:18;;;;;;;14.88;7.03;;;205.40;1638.40;;;;;;5120015;28;20244;-70
2021/03/12 10:04:54;;;;;;;14.27;7.35;;;205.50;1638.40;;;;;;5120179;28;20493;-69
2021/03/12 10:07:21;;;;;;;11.02;7.28;;;205.70;1638.40;;;;;;5119799;28;20028;-68
2021/03/12 10:09:49;;;;;;;10.77;5.97;;;230.40;1638.40;;;;;;5120326;28;20019;-69
2021/03/12 10:12:25;;;;;;;12.65;7.70;;;230.40;1664.00;;;;;;5120095;28;20110;-68
2021/03/12 10:15:07;;;;;;;17.52;9.57;;;205.70;1638.40;;;;;;5119493;28;20032;-68
2021/03/12 10:17:37;;;;;;;20.23;12.80;;;205.50;1664.00;;;;;;5119295;28;20092;-69
2021/03/12 10:20:20;;;;;;;11.35;7.53;;;205.70;1664.00;;;;;;5119443;28;20429;-69
2021/03/12 10:22:55;;;;;;;10.60;7.03;;;205.60;1664.00;;;;;;5119457;28;20077;-69
2021/03/12 10:25:28;;;;;;;14.40;6.72;;;230.50;1638.40;;;;;;5119515;28;20384;-68
2021/03/12 10:28:19;;;;;;;22.85;9.73;;;230.40;1664.00;;;;;;5120048;28;20157;-69
2021/03/12 10:30:56;;;;;;;21.77;12.88;;;230.40;1664.00;;;;;;5120005;28;20027;-68
2021/03/12 10:33:28;;;;;;;10.23;6.55;;;230.40;1664.00;;;;;;5118844;28;20070;-70
2021/03/12 10:35:56;;;;;;;11.95;7.93;;;230.60;1638.40;;;;;;5119111;27;20445;-69
2021/03/12 10:38:27;;;;;;;13.70;8.07;;;230.70;1638.40;;;;;;5118259;28;20016;-68
2021/03/12 10:40:59;;;;;;;10.45;7.25;;;230.60;1638.40;;;;;;5115910;28;20023;-70
2021/03/12 10:43:30;;;;;;;14.35;9.75;;;230.90;1612.80;;;;;;5118649;28;20054;-70
2021/03/12 10:45:59;;;;;;;17.63;8.02;;;230.80;1612.80;;;;;;5118519;28;20027;-69
2021/03/12 10:48:27;;;;;;;;;;;230.80;1587.20;;;;;;5118852;28;20322;-69
2021/03/12 10:51:03;;;;;;;12.27;8.27;;;231.00;1587.20;;;;;;5118910;28;19904;-70
2021/03/12 10:53:29;;;;;;;11.13;8.35;;;231.30;1587.20;;;;;;5115452;28;20028;-70
2021/03/12 10:56:04;;;;;;;18.95;7.72;;;256.40;1561.60;;;;;;5122285;27;20090;-72
2021/03/12 10:58:34;;;;;;;12.38;7.35;;;256.20;1561.60;;;;;;5119664;27;20407;-70
2021/03/12 11:01:09;;;;;;;11.65;8.10;;;256.40;1561.60;;;;;;5125120;27;20106;-69
2021/03/12 11:03:35;;;;;;;14.30;8.63;;;256.80;1561.60;;;;;;5121744;27;20085;-69
2021/03/12 11:06:01;;;;;;;12.57;8.50;;;281.60;1561.60;;;;;;5126045;27;20023;-70
2021/03/12 11:08:28;;;;;;;15.23;8.18;;;256.80;1536.00;;;;;;5123225;27;20019;-70
2021/03/12 11:10:58;;;;;;;11.85;7.93;;;256.90;1536.00;;;;;;5130266;27;20027;-70
2021/03/12 11:13:32;;;;;;;11.32;6.60;;;281.60;1536.00;;;;;;5139531;27;20035;-73
2021/03/12 11:15:58;;;;;;;8.82;6.53;;;256.60;1536.00;;;;;;5132278;27;20027;-68
2021/03/12 11:18:26;;;;;;;9.38;6.45;;;256.90;1536.00;;;;;;5127864;27;20463;-71
2021/03/12 11:20:53;;;;;;;10.52;6.80;;;281.70;1561.60;;;;;;5129222;27;20024;-71
2021/03/12 11:23:18;;;;;;;11.77;7.47;;;281.90;1536.00;;;;;;5120542;27;20019;-71
2021/03/12 11:25:44;;;;;;;16.10;9.18;;;256.90;1510.40;;;;;;5126817;27;20070;-70
2021/03/12 11:28:10;;;;;;;12.18;7.72;;;256.80;1536.00;;;;;;5119171;27;20019;-70
2021/03/12 11:30:36;;;;;;;11.95;8.50;;;256.50;1510.40;;;;;;5118745;28;20031;-70
2021/03/12 11:33:05;;;;;;;9.80;5.40;;;256.50;1561.60;;;;;;5118132;28;20031;-70
2021/03/12 11:35:31;;;;;;;22.23;11.55;;;256.60;1510.40;;;;;;5118743;28;20027;-69
2021/03/12 11:37:57;;;;;;;8.65;5.80;;;281.60;1536.00;;;;;;5118593;28;20027;-69
2021/03/12 11:40:23;;;;;;;10.23;7.30;;;281.70;1510.40;;;;;;5117688;28;20020;-70
2021/03/12 11:42:49;;;;;;;24.73;9.35;;;282.10;1510.40;;;;;;5117774;28;20342;-70
2021/03/12 11:45:17;;;;;;;12.13;7.85;;;307.20;1510.40;;;;;;5117913;28;20032;-71
2021/03/12 11:47:44;;;;;;;11.07;6.57;;;307.30;1510.40;;;;;;5118177;28;20100;-72
2021/03/12 11:50:13;;;;;;;11.20;7.75;;;307.20;1484.80;;;;;;5117559;28;20019;-69
2021/03/12 11:52:39;;;;;;;13.30;8.20;;;307.20;1484.80;;;;;;5117615;28;20114;-70
2021/03/12 11:55:06;;;;;;;16.85;9.00;;;307.20;1510.40;;;;;;5118048;28;20430;-69
2021/03/12 11:57:37;;;;;;;20.38;9.07;;;282.50;1510.40;;;;;;5118328;28;20019;-74
2021/03/12 12:00:07;;;;;;;16.13;9.57;;;282.30;1536.00;;;;;;5117699;28;20023;-69
2021/03/12 12:02:33;;;;;;;17.60;9.98;;;282.10;1561.60;;;;;;5118191;28;20029;-70
2021/03/12 12:04:59;;;;;;;17.55;11.07;;;282.10;1561.60;;;;;;5117625;28;20031;-70
2021/03/12 12:07:25;;;;;;;15.50;9.43;;;281.80;1587.20;;;;;;5114625;28;20027;-71
2021/03/12 12:09:50;;;;;;;18.63;11.65;;;281.90;1561.60;;;;;;5105264;28;20081;-69
2021/03/12 12:12:16;;;;;;;25.77;11.80;;;281.70;1587.20;;;;;;5096708;28;20075;-70
2021/03/12 12:14:42;;;;;;;17.67;9.98;;;281.90;1587.20;;;;;;5095396;28;20028;-69
2021/03/12 12:17:08;;;;;;;17.25;10.93;;;256.90;1561.60;;;;;;5097350;28;20027;-70
2021/03/12 12:19:35;;;;;;;29.52;14.30;;;281.80;1587.20;;;;;;5097622;28;20028;-68
2021/03/12 12:22:01;;;;;;;29.20;14.27;;;281.90;1587.20;;;;;;5096118;28;20341;-70
2021/03/12 12:24:27;;;;;;;18.30;9.60;;;281.90;1612.80;;;;;;5096526;28;20028;-69
2021/03/12 12:26:53;;;;;;;15.75;8.48;;;281.70;1561.60;;;;;;5100313;28;20072;-70
2021/03/12 12:29:19;;;;;;;15.43;10.38;;;256.80;1536.00;;;;;;5094226;28;20024;-69
2021/03/12 12:31:46;;;;;;;16.88;11.10;;;256.80;1561.60;;;;;;5096321;28;20028;-71
2021/03/12 12:34:11;;;;;;;23.67;11.75;;;281.60;1587.20;;;;;;5095936;28;20043;-70
2021/03/12 12:36:37;;;;;;;18.27;11.25;;;256.90;1561.60;;;;;;5096615;28;20032;-71
2021/03/12 12:39:06;;;;;;;17.40;10.40;;;256.90;1561.60;;;;;;5096830;28;20035;-71
2021/03/12 12:41:37;;;;;;;19.90;11.10;;;281.60;1587.20;;;;;;5096686;28;20051;-72
2021/03/12 12:44:04;;;;;;;19.95;9.15;;;281.90;1561.60;;;;;;5096769;28;20032;-69
2021/03/12 12:46:31;;;;;;;13.57;8.60;;;281.60;1587.20;;;;;;5096988;28;20535;-76
2021/03/12 12:48:57;;;;;;;15.45;8.98;;;281.90;1587.20;;;;;;5096430;28;20020;-70
2021/03/12 12:51:23;;;;;;;15.23;9.52;;;281.90;1587.20;;;;;;5096968;28;20342;-70
2021/03/12 12:53:49;;;;;;;15.52;10.48;;;281.80;1612.80;;;;;;5102704;28;20028;-70
2021/03/12 12:56:14;;;;;;;20.70;12.32;;;281.70;1612.80;;;;;;5116550;28;20026;-70
2021/03/12 12:58:40;;;;;;;14.77;9.70;;;256.80;1587.20;;;;;;5116555;28;20334;-70
2021/03/12 13:01:06;;;;;;;15.98;9.30;;;281.60;1612.80;;;;;;5117385;28;20027;-70
2021/03/12 13:03:37;;;;;;;16.88;9.65;;;256.90;1561.60;;;;;;5116835;28;20031;-71
2021/03/12 13:06:06;;;;;;;16.13;9.60;;;281.80;1587.20;;;;;;5117101;28;20378;-69
2021/03/12 13:08:38;;;;;;;15.25;10.05;;;282.00;1587.20;;;;;;5117098;28;20035;-71
2021/03/12 13:11:07;;;;;;;18.02;9.43;;;282.10;1587.20;;;;;;5117259;28;20410;-73
2021/03/12 13:13:32;;;;;;;;;;;281.80;1587.20;;;;;;5117727;28;20023;-69
2021/03/12 13:16:01;;;;;;;16.90;10.45;;;281.80;1612.80;;;;;;5116318;28;19910;-70
2021/03/12 13:18:30;;;;;;;35.80;20.20;;;281.90;1612.80;;;;;;5117615;28;20023;-71
2021/03/12 13:21:00;;;;;;;31.23;20.65;;;281.80;1664.00;;;;;;5118999;28;20342;-71
2021/03/12 13:23:28;;;;;;;26.65;13.00;;;282.00;1689.60;;;;;;5118650;28;20027;-71
2021/03/12 13:25:56;;;;;;;21.90;11.93;;;281.90;1689.60;;;;;;5121226;28;20019;-69
2021/03/12 13:28:24;;;;;;;17.42;12.23;;;282.00;1689.60;;;;;;5119354;28;20028;-70
2021/03/12 13:30:51;;;;;;;19.58;12.32;;;282.20;1664.00;;;;;;5119480;28;20020;-71
2021/03/12 13:33:17;;;;;;;20.02;13.48;;;307.20;1689.60;;;;;;5116697;28;20028;-70
2021/03/12 13:35:43;;;;;;;23.60;12.65;;;307.50;1638.40;;;;;;5120266;28;20059;-68
2021/03/12 13:38:10;;;;;;;28.20;12.23;;;307.50;1664.00;;;;;;5120475;28;20085;-69
2021/03/12 13:40:36;;;;;;;29.58;12.55;;;307.60;1664.00;;;;;;5120670;28;20024;-71
2021/03/12 13:43:03;;;;;;;21.33;12.05;;;307.70;1664.00;;;;;;5107946;28;20127;-71
2021/03/12 13:45:31;;;;;;;18.17;10.73;;;307.70;1715.20;;;;;;5099854;28;20445;-71
2021/03/12 13:47:57;;;;;;;17.48;10.95;;;307.70;1689.60;;;;;;5097038;28;20024;-71
2021/03/12 13:50:24;;;;;;;16.67;10.07;;;307.90;1664.00;;;;;;5112743;28;20068;-70
2021/03/12 13:52:50;;;;;;;15.13;9.63;;;332.90;1638.40;;;;;;5106024;28;20039;-69
2021/03/12 13:55:16;;;;;;;15.25;8.98;;;333.10;1612.80;;;;;;5094495;28;20116;-69
2021/03/12 13:57:42;;;;;;;15.65;9.50;;;333.10;1587.20;;;;;;5104839;28;20028;-70
2021/03/12 14:00:11;;;;;;;12.20;7.47;;;333.30;1587.20;;;;;;5099534;28;20359;-70
2021/03/12 14:02:37;;;;;;;15.75;8.60;;;333.50;1536.00;;;;;;5099138;28;20127;-70
2021/03/12 14:05:06;;;;;;;18.20;9.07;;;333.20;1561.60;;;;;;5099159;28;20119;-71
2021/03/12 14:07:31;;;;;;;15.90;9.70;;;333.30;1536.00;;;;;;5099962;28;20402;-69
2021/03/12 14:09:57;;;;;;;15.57;9.52;;;333.30;1536.00;;;;;;5099722;28;20065;-71
2021/03/12 14:12:23;;;;;;;16.63;10.27;;;333.70;1536.00;;;;;;5099475;28;20372;-71
2021/03/12 14:14:50;;;;;;;14.40;9.32;;;358.40;1536.00;;;;;;5120299;28;20041;-70
2021/03/12 14:17:16;;;;;;;15.90;9.88;;;358.70;1510.40;;;;;;5120216;28;20106;-70
2021/03/12 14:19:42;;;;;;;17.35;11.82;;;358.50;1510.40;;;;;;5119596;28;20072;-70
2021/03/12 14:22:11;;;;;;;19.75;13.55;;;358.60;1484.80;;;;;;5120096;28;20322;-70
2021/03/12 14:24:36;;;;;;;16.95;9.00;;;358.40;1484.80;;;;;;5119229;28;20504;-70
2021/03/12 14:27:03;;;;;;;16.95;9.55;;;333.60;1484.80;;;;;;5119463;28;20114;-70
2021/03/12 14:29:29;;;;;;;20.45;12.20;;;333.50;1510.40;;;;;;5119541;28;20092;-72
2021/03/12 14:31:55;;;;;;;15.48;11.07;;;333.30;1536.00;;;;;;5119512;28;20063;-71
2021/03/12 14:34:21;;;;;;;23.02;14.40;;;333.70;1484.80;;;;;;5118678;28;20030;-70
2021/03/12 14:36:46;;;;;;;23.35;13.60;;;359.00;1459.20;;;;;;5119447;28;20023;-69
2021/03/12 14:39:13;;;;;;;19.55;11.77;;;384.40;1408.00;;;;;;5119191;28;20019;-71
2021/03/12 14:41:39;;;;;;;22.83;14.45;;;384.70;1331.20;;;;;;5119791;27;20038;-71
2021/03/12 14:44:06;;;;;;;26.55;13.52;;;410.20;1331.20;;;;;;5140057;27;20042;-71
2021/03/12 14:46:32;;;;;;;27.13;15.52;;;384.90;1305.60;;;;;;5139870;27;20356;-72
2021/03/12 14:48:58;;;;;;;24.02;13.95;;;359.20;1382.40;;;;;;5139351;27;20030;-70
2021/03/12 14:51:24;;;;;;;27.63;16.33;;;333.70;1459.20;;;;;;5139413;27;20113;-70
2021/03/12 14:53:51;;;;;;;27.40;15.35;;;333.10;1510.40;;;;;;5139444;27;20379;-70
2021/03/12 14:56:17;;;;;;;37.25;16.80;;;333.00;1510.40;;;;;;5138703;27;20402;-71
2021/03/12 14:58:43;;;;;;;41.55;16.33;;;333.00;1536.00;;;;;;5139648;27;20019;-71
2021/03/12 15:01:09;;;;;;;25.83;14.95;;;332.90;1536.00;;;;;;5139666;27;20071;-69
2021/03/12 15:03:35;;;;;;;24.75;14.13;;;308.00;1587.20;;;;;;5139838;27;20434;-70
2021/03/12 15:06:01;;;;;;;25.05;15.23;;;308.10;1561.60;;;;;;5121308;27;20303;-70
2021/03/12 15:08:27;;;;;;;31.55;15.75;;;332.90;1587.20;;;;;;5139438;27;20026;-71
2021/03/12 15:10:54;;;;;;;21.70;13.70;;;308.10;1587.20;;;;;;5139189;27;20031;-71
2021/03/12 15:13:21;;;;;;;14.50;10.27;;;308.00;1587.20;;;;;;5139605;27;20022;-70
2021/03/12 15:15:46;;;;;;;20.77;11.38;;;307.60;1612.80;;;;;;5139351;27;20030;-70
2021/03/12 15:18:12;;;;;;;28.42;12.15;;;307.60;1638.40;;;;;;5138936;27;20509;-69
2021/03/12 15:20:39;;;;;;;19.60;11.88;;;307.60;1638.40;;;;;;5112347;27;20035;-71
2021/03/12 15:23:06;;;;;;;14.40;10.48;;;307.60;1664.00;;;;;;5103142;27;20118;-70
2021/03/12 15:25:33;;;;;;;21.17;10.52;;;307.40;1664.00;;;;;;5126773;27;20027;-70
2021/03/12 15:28:00;;;;;;;15.98;10.10;;;307.40;1664.00;;;;;;5125271;27;20026;-70
2021/03/12 15:30:27;;;;;;;21.02;8.40;;;307.50;1664.00;;;;;;5125159;27;20023;-69
2021/03/12 15:32:53;;;;;;;18.83;9.25;;;307.40;1664.00;;;;;;5126717;27;20042;-69
2021/03/12 15:35:22;;;;;;;15.50;9.68;;;307.20;1689.60;;;;;;5125343;27;20511;-70
2021/03/12 15:37:48;;;;;;;15.95;9.43;;;307.40;1638.40;;;;;;5124733;27;20019;-70
2021/03/12 15:40:14;;;;;;;16.05;8.98;;;307.30;1664.00;;;;;;5126099;27;20023;-72
2021/03/12 15:42:40;;;;;;;13.43;8.75;;;307.20;1664.00;;;;;;5116773;28;20093;-70
2021/03/12 15:45:07;;;;;;;17.33;9.75;;;307.20;1664.00;;;;;;5114424;28;20070;-71
2021/03/12 15:47:33;;;;;;;15.00;9.77;;;307.30;1638.40;;;;;;5114763;28;20034;-70
2021/03/12 15:49:59;;;;;;;14.82;9.07;;;307.50;1638.40;;;;;;5114202;28;20051;-68
2021/03/12 15:52:25;;;;;;;16.98;11.15;;;307.50;1638.40;;;;;;5114507;28;20031;-69
2021/03/12 15:54:52;;;;;;;24.98;15.00;;;307.40;1638.40;;;;;;5116731;27;20038;-70
2021/03/12 15:57:19;;;;;;;24.45;14.90;;;282.50;1612.80;;;;;;5113757;27;20526;-70
2021/03/12 15:59:45;;;;;;;22.88;13.40;;;282.40;1638.40;;;;;;5095164;28;20461;-70
2021/03/12 16:02:20;;;;;;;29.90;16.15;;;282.50;1638.40;;;;;;5123126;27;20034;-67
2021/03/12 16:04:49;;;;;;;30.75;18.05;;;282.50;1638.40;;;;;;5101531;27;20029;-69
2021/03/12 16:07:18;;;;;;;35.67;19.80;;;307.20;1638.40;;;;;;5120752;27;20110;-68
2021/03/12 16:09:44;;;;;;;24.73;15.95;;;282.50;1638.40;;;;;;5123613;27;20036;-70
2021/03/12 16:12:10;;;;;;;59.17;31.10;;;282.40;1638.40;;;;;;5123867;27;20041;-69
2021/03/12 16:14:37;;;;;;;35.60;20.70;;;282.20;1664.00;;;;;;5118194;27;20084;-69
2021/03/12 16:17:03;;;;;;;42.50;17.63;;;282.30;1689.60;;;;;;5124723;27;20369;-68
2021/03/12 16:19:29;;;;;;;29.63;16.92;;;282.10;1689.60;;;;;;5122563;27;20109;-69
2021/03/12 16:21:58;;;;;;;31.88;17.92;;;281.90;1689.60;;;;;;5124270;27;20066;-71
2021/03/12 16:24:26;;;;;;;31.83;17.30;;;281.90;1715.20;;;;;;5123213;27;20020;-71
2021/03/12 16:26:54;;;;;;;25.08;13.30;;;281.90;1740.80;;;;;;5124302;27;20101;-70
2021/03/12 16:29:21;;;;;;;27.07;10.43;;;281.90;1740.80;;;;;;5125267;27;20034;-71
2021/03/12 16:31:48;;;;;;;17.23;8.73;;;282.00;1689.60;;;;;;5101262;28;20421;-71
2021/03/12 16:34:14;;;;;;;17.40;10.55;;;281.90;1689.60;;;;;;5123828;28;20101;-71
2021/03/12 16:36:40;;;;;;;13.15;9.20;;;281.90;1664.00;;;;;;5123227;28;20022;-71
2021/03/12 16:39:08;;;;;;;20.48;9.95;;;281.60;1715.20;;;;;;5120425;28;20095;-70
2021/03/12 16:41:34;;;;;;;19.80;10.20;;;281.60;1740.80;;;;;;5123504;28;20367;-71
2021/03/12 16:44:00;;;;;;;15.48;10.10;;;256.80;1715.20;;;;;;5124498;28;20038;-69
2021/03/12 16:46:27;;;;;;;18.90;10.20;;;256.80;1715.20;;;;;;5119927;28;20418;-69
2021/03/12 16:48:53;;;;;;;18.98;9.63;;;256.40;1766.40;;;;;;5124172;28;20114;-68
2021/03/12 16:51:19;;;;;;;16.40;10.40;;;256.40;1766.40;;;;;;5134087;28;20536;-69
2021/03/12 16:53:45;;;;;;;19.02;9.77;;;256.40;1766.40;;;;;;5135974;27;20110;-70
2021/03/12 16:56:13;;;;;;;17.75;11.38;;;256.50;1792.00;;;;;;5138721;27;20051;-69